Time;durP1;ratioP1;P1;durP2;ratioP2;P2;SDS_P1;SDS_P2;PMS_P1;PMS_P2;Temp;Humidity;BMP_temperature;BMP_pressure;BME280_temperature;BME280_humidity;BME280_pressure;Samples;Min_cycle;Max_cycle;Signal;HPM_P1;HPM_P2
2021/03/19 00:00:47;;;;;;;2.40;2.13;;;19.70;23.10;;;;;;5114657;28;20168;-54
2021/03/19 00:03:12;;;;;;;2.87;2.30;;;19.80;23.20;;;;;;5115010;28;20185;-55
2021/03/19 00:05:38;;;;;;;2.33;1.90;;;19.80;23.10;;;;;;5113707;28;20164;-54
2021/03/19 00:08:04;;;;;;;2.40;2.10;;;19.80;23.20;;;;;;5115098;28;20234;-54
2021/03/19 00:10:33;;;;;;;2.70;2.23;;;19.80;23.10;;;;;;5115113;28;20160;-53
2021/03/19 00:13:03;;;;;;;2.55;2.30;;;19.80;23.20;;;;;;5115082;28;20386;-54
2021/03/19 00:15:30;;;;;;;2.13;1.92;;;19.70;23.10;;;;;;5114213;28;20245;-53
2021/03/19 00:17:58;;;;;;;2.72;2.40;;;19.70;23.10;;;;;;5114936;28;20236;-53
2021/03/19 00:20:24;;;;;;;2.45;1.70;;;19.70;23.10;;;;;;5114583;28;20169;-54
2021/03/19 00:22:50;;;;;;;2.40;2.10;;;19.70;23.10;;;;;;5114796;28;20192;-54
2021/03/19 00:25:15;;;;;;;2.43;2.23;;;19.70;23.10;;;;;;5114385;28;20491;-54
2021/03/19 00:27:41;;;;;;;2.30;2.10;;;19.70;23.10;;;;;;5114616;27;20197;-54
2021/03/19 00:30:10;;;;;;;3.10;2.10;;;19.70;23.10;;;;;;5113930;28;20199;-53
2021/03/19 00:32:37;;;;;;;2.38;2.05;;;19.70;23.20;;;;;;5113207;28;20585;-54
2021/03/19 00:35:04;;;;;;;2.72;2.38;;;19.70;23.20;;;;;;5114432;27;20153;-53
2021/03/19 00:37:29;;;;;;;3.00;1.90;;;19.70;23.20;;;;;;5114432;28;20169;-53
2021/03/19 00:39:55;;;;;;;2.30;2.10;;;19.70;23.20;;;;;;5114247;28;20194;-54
2021/03/19 00:42:21;;;;;;;2.20;2.00;;;19.70;23.20;;;;;;5114355;28;20169;-54
2021/03/19 00:44:46;;;;;;;2.10;1.90;;;19.70;23.20;;;;;;5113501;28;20460;-54
2021/03/19 00:47:15;;;;;;;2.17;1.63;;;19.70;23.20;;;;;;5114278;28;20219;-54
2021/03/19 00:49:41;;;;;;;2.80;1.98;;;19.70;23.20;;;;;;5114056;28;20513;-54
2021/03/19 00:52:06;;;;;;;2.20;1.93;;;19.70;23.20;;;;;;5113938;28;20165;-54
2021/03/19 00:54:32;;;;;;;2.53;1.87;;;19.70;23.20;;;;;;5113661;28;20568;-54
2021/03/19 00:56:58;;;;;;;2.77;2.47;;;19.70;23.20;;;;;;5114018;28;20212;-54
2021/03/19 00:59:24;;;;;;;2.40;2.20;;;19.70;23.80;;;;;;5113760;28;20222;-53
2021/03/19 01:01:49;;;;;;;2.00;1.80;;;19.60;23.10;;;;;;5108700;28;20930;-54
2021/03/19 01:04:20;;;;;;;2.10;1.90;;;19.70;23.20;;;;;;5113478;28;20177;-53
2021/03/19 01:06:46;;;;;;;2.20;2.00;;;19.70;23.20;;;;;;5113945;27;20188;-54
2021/03/19 01:09:12;;;;;;;2.00;1.80;;;19.70;23.20;;;;;;5113722;28;20167;-54
2021/03/19 01:11:37;;;;;;;2.50;2.13;;;19.60;23.20;;;;;;5114400;28;20173;-54
2021/03/19 01:14:03;;;;;;;4.40;2.30;;;19.60;23.10;;;;;;5113293;28;20452;-55
2021/03/19 01:16:29;;;;;;;2.60;1.93;;;19.60;23.10;;;;;;5112467;28;20177;-55
2021/03/19 01:18:55;;;;;;;2.17;1.97;;;19.60;23.10;;;;;;5113734;28;20414;-54
2021/03/19 01:21:20;;;;;;;1.77;1.67;;;19.60;23.10;;;;;;5113601;28;20245;-54
2021/03/19 01:23:47;;;;;;;1.80;1.70;;;19.60;23.10;;;;;;5113450;28;20153;-54
2021/03/19 01:26:16;;;;;;;1.95;1.70;;;19.60;23.20;;;;;;5113392;28;20582;-54
2021/03/19 01:28:46;;;;;;;2.00;1.75;;;19.60;23.20;;;;;;5113409;28;20164;-54
2021/03/19 01:31:14;;;;;;;2.05;1.75;;;19.60;23.20;;;;;;5112733;28;20153;-53
2021/03/19 01:33:40;;;;;;;2.40;2.10;;;19.60;23.20;;;;;;5113432;28;20186;-53
2021/03/19 01:36:06;;;;;;;2.93;2.30;;;19.60;23.20;;;;;;5113380;28;20314;-53
2021/03/19 01:38:37;;;;;;;2.22;2.05;;;19.60;23.20;;;;;;5113291;28;20282;-54
2021/03/19 01:41:04;;;;;;;2.17;1.95;;;19.60;23.20;;;;;;5112003;28;20168;-54
2021/03/19 01:43:57;;;;;;;2.35;1.95;;;19.60;23.20;;;;;;5113226;28;20157;-54
2021/03/19 01:47:00;;;;;;;2.15;1.70;;;19.60;23.20;;;;;;5113158;28;20185;-54
2021/03/19 01:50:03;;;;;;;2.40;2.20;;;19.60;23.20;;;;;;5113050;28;20664;-54
2021/03/19 01:53:06;;;;;;;1.88;1.77;;;19.60;23.20;;;;;;5113378;28;20151;-53
2021/03/19 01:56:09;;;;;;;2.10;1.90;;;19.60;23.20;;;;;;5112987;28;20152;-53
2021/03/19 01:59:15;;;;;;;2.90;2.22;;;19.60;23.20;;;;;;5112826;28;20185;-53
2021/03/19 02:02:18;;;;;;;2.08;1.88;;;19.60;23.30;;;;;;5113105;28;20238;-54
2021/03/19 02:05:21;;;;;;;2.13;1.92;;;19.60;23.20;;;;;;5112871;28;20149;-54
2021/03/19 02:08:24;;;;;;;1.92;1.77;;;19.60;23.20;;;;;;5113281;28;20225;-53
2021/03/19 02:11:27;;;;;;;2.10;1.90;;;19.60;23.20;;;;;;5112880;28;20180;-53
2021/03/19 02:14:30;;;;;;;1.73;1.63;;;19.60;23.20;;;;;;5116759;28;20160;-54
2021/03/19 02:17:33;;;;;;;2.13;1.70;;;19.50;23.20;;;;;;5117268;28;20236;-54
2021/03/19 02:20:36;;;;;;;2.15;1.95;;;19.50;23.40;;;;;;5116719;28;20188;-54
2021/03/19 02:23:39;;;;;;;2.00;1.85;;;19.50;23.20;;;;;;5116695;28;20164;-54
2021/03/19 02:26:45;;;;;;;2.50;2.22;;;19.60;23.20;;;;;;5116567;28;20646;-54
2021/03/19 02:29:49;;;;;;;2.63;2.05;;;19.60;23.30;;;;;;5116248;28;20153;-54
2021/03/19 02:32:18;;;;;;;2.03;1.73;;;19.50;23.20;;;;;;5116668;28;20232;-53
2021/03/19 02:34:53;;;;;;;2.05;1.85;;;19.50;23.20;;;;;;5116682;28;20540;-53
2021/03/19 02:37:24;;;;;;;2.05;1.85;;;19.50;23.20;;;;;;5115243;28;20248;-54
2021/03/19 02:39:51;;;;;;;2.22;2.00;;;19.50;23.20;;;;;;5116362;28;20299;-53
2021/03/19 02:42:18;;;;;;;2.10;1.60;;;19.50;23.20;;;;;;5116373;28;20161;-53
2021/03/19 02:44:46;;;;;;;2.22;2.03;;;19.50;23.20;;;;;;5115905;28;20177;-53
2021/03/19 02:47:12;;;;;;;1.80;1.55;;;19.50;23.20;;;;;;5116418;28;20647;-53
2021/03/19 02:49:38;;;;;;;2.27;1.90;;;19.50;23.20;;;;;;5116074;28;20164;-53
2021/03/19 02:52:04;;;;;;;2.00;1.80;;;19.50;23.20;;;;;;5116169;28;20414;-53
2021/03/19 02:54:29;;;;;;;2.00;1.50;;;19.50;23.20;;;;;;5116062;28;20915;-53
2021/03/19 02:56:55;;;;;;;2.00;1.90;;;19.50;23.20;;;;;;5116211;28;20465;-53
2021/03/19 02:59:23;;;;;;;1.80;1.50;;;19.50;23.20;;;;;;5115561;28;20170;-53
2021/03/19 03:01:49;;;;;;;2.42;1.90;;;19.50;23.20;;;;;;5116079;28;20185;-54
2021/03/19 03:04:16;;;;;;;2.10;1.90;;;19.50;23.10;;;;;;5115895;28;20157;-54
2021/03/19 03:06:47;;;;;;;1.90;1.70;;;19.50;23.10;;;;;;5099971;28;20858;-53
2021/03/19 03:09:22;;;;;;;1.90;1.60;;;19.50;23.70;;;;;;5095209;28;20173;-53
2021/03/19 03:11:48;;;;;;;2.08;1.65;;;19.50;23.10;;;;;;5095619;28;20650;-53
2021/03/19 03:14:18;;;;;;;1.83;1.70;;;19.50;23.10;;;;;;5101079;28;20185;-53
2021/03/19 03:16:50;;;;;;;2.15;1.95;;;19.50;23.20;;;;;;5115924;28;20508;-54
2021/03/19 03:19:19;;;;;;;1.77;1.58;;;19.50;23.20;;;;;;5115574;28;20287;-54
2021/03/19 03:21:45;;;;;;;1.73;1.60;;;19.50;23.20;;;;;;5115834;28;20177;-53
2021/03/19 03:24:14;;;;;;;2.20;1.63;;;19.50;23.20;;;;;;5113309;28;20188;-53
2021/03/19 03:26:42;;;;;;;1.70;1.60;;;19.50;23.20;;;;;;5115784;28;20189;-54
2021/03/19 03:29:09;;;;;;;2.08;1.90;;;19.50;23.20;;;;;;5115035;28;20153;-53
2021/03/19 03:31:38;;;;;;;2.53;1.70;;;19.50;23.20;;;;;;5115657;28;20193;-53
2021/03/19 03:34:05;;;;;;;2.17;1.58;;;19.50;23.20;;;;;;5115496;28;20160;-53
2021/03/19 03:36:33;;;;;;;2.10;1.70;;;19.50;23.20;;;;;;5115651;28;20251;-54
2021/03/19 03:38:59;;;;;;;1.70;1.50;;;19.50;23.20;;;;;;5115393;28;20145;-54
2021/03/19 03:41:27;;;;;;;2.30;1.80;;;19.50;23.20;;;;;;5115227;28;20255;-54
2021/03/19 03:43:52;;;;;;;2.13;1.90;;;19.50;23.20;;;;;;5114772;28;20261;-54
2021/03/19 03:46:22;;;;;;;1.97;1.60;;;19.50;23.20;;;;;;5115246;28;20284;-54
2021/03/19 03:48:48;;;;;;;2.15;1.95;;;19.50;23.20;;;;;;5115263;28;20161;-54
2021/03/19 03:51:19;;;;;;;2.00;1.80;;;19.50;23.20;;;;;;5113581;28;20511;-53
2021/03/19 03:53:45;;;;;;;1.90;1.80;;;19.50;23.20;;;;;;5115030;28;20173;-54
2021/03/19 03:56:17;;;;;;;3.13;1.80;;;19.40;23.10;;;;;;5115027;28;20195;-54
2021/03/19 03:58:43;;;;;;;2.10;1.90;;;19.50;23.20;;;;;;5115017;28;20220;-54
2021/03/19 04:01:10;;;;;;;2.17;1.85;;;19.40;23.20;;;;;;5114527;28;20161;-54
2021/03/19 04:03:36;;;;;;;1.52;1.35;;;19.40;23.70;;;;;;5114852;28;20215;-53
2021/03/19 04:06:02;;;;;;;1.45;1.35;;;19.40;23.10;;;;;;5114609;28;20157;-54
2021/03/19 04:08:38;;;;;;;1.90;1.60;;;19.50;23.20;;;;;;5114906;28;20164;-54
2021/03/19 04:11:11;;;;;;;2.15;1.92;;;19.40;23.10;;;;;;5114899;28;20153;-54
2021/03/19 04:13:37;;;;;;;3.15;2.00;;;19.50;23.10;;;;;;5114883;28;20150;-54
2021/03/19 04:16:04;;;;;;;2.08;1.88;;;19.40;23.10;;;;;;5114225;28;20157;-53
2021/03/19 04:18:30;;;;;;;2.30;1.90;;;19.40;23.10;;;;;;5114704;27;20240;-53
2021/03/19 04:21:00;;;;;;;1.90;1.80;;;19.40;23.10;;;;;;5114397;28;20168;-53
2021/03/19 04:23:31;;;;;;;2.08;1.95;;;19.40;23.10;;;;;;5114667;28;20157;-53
2021/03/19 04:25:56;;;;;;;1.90;1.80;;;19.40;23.10;;;;;;5114306;28;20248;-54
2021/03/19 04:28:26;;;;;;;2.63;1.80;;;19.40;23.10;;;;;;5114526;28;20248;-53
2021/03/19 04:30:52;;;;;;;1.38;1.27;;;19.40;23.10;;;;;;5114041;28;20403;-53
2021/03/19 04:33:20;;;;;;;3.20;1.77;;;19.40;23.10;;;;;;5114479;28;20675;-54
2021/03/19 04:36:12;;;;;;;1.90;1.80;;;19.40;23.10;;;;;;5113229;28;20164;-54
2021/03/19 04:38:42;;;;;;;1.85;1.75;;;19.40;23.10;;;;;;5114315;28;20153;-55
2021/03/19 04:41:09;;;;;;;1.70;1.60;;;19.40;23.10;;;;;;5114215;28;20219;-54
2021/03/19 04:43:35;;;;;;;2.38;1.55;;;19.40;23.10;;;;;;5114298;28;20149;-55
2021/03/19 04:46:03;;;;;;;2.35;1.85;;;19.40;23.10;;;;;;5113627;28;20196;-54
2021/03/19 04:48:29;;;;;;;1.80;1.70;;;19.40;23.10;;;;;;5114193;28;20164;-54
2021/03/19 04:50:55;;;;;;;1.70;1.60;;;19.40;23.10;;;;;;5113726;28;20153;-55
2021/03/19 04:53:21;;;;;;;1.70;1.40;;;19.40;23.10;;;;;;5114037;28;20374;-55
2021/03/19 04:55:47;;;;;;;1.83;1.73;;;19.40;23.10;;;;;;5112693;28;20463;-54
2021/03/19 04:58:15;;;;;;;1.60;1.50;;;19.40;23.10;;;;;;5113994;28;20250;-54
2021/03/19 05:00:41;;;;;;;2.25;1.40;;;19.40;23.10;;;;;;5113534;28;20399;-54
2021/03/19 05:03:06;;;;;;;1.97;1.80;;;19.40;23.10;;;;;;5113751;28;20226;-53
2021/03/19 05:05:34;;;;;;;1.90;1.70;;;19.40;23.10;;;;;;5113566;28;20244;-54
2021/03/19 05:08:01;;;;;;;1.88;1.50;;;19.40;23.60;;;;;;5113883;28;20185;-54
2021/03/19 05:10:34;;;;;;;1.88;1.45;;;19.40;23.10;;;;;;5113782;28;20153;-54
2021/03/19 05:13:01;;;;;;;1.88;1.77;;;19.40;23.10;;;;;;5113852;28;20181;-54
2021/03/19 05:15:28;;;;;;;2.13;1.50;;;19.40;23.10;;;;;;5113172;28;20145;-54
2021/03/19 05:17:55;;;;;;;1.73;1.60;;;19.40;23.10;;;;;;5113837;28;20236;-54
2021/03/19 05:20:21;;;;;;;1.70;1.60;;;19.40;23.10;;;;;;5113607;28;20177;-53
2021/03/19 05:22:47;;;;;;;1.58;1.30;;;19.50;23.10;;;;;;5113663;28;20157;-53
2021/03/19 05:25:17;;;;;;;1.50;1.40;;;19.50;23.10;;;;;;5113401;28;20503;-55
2021/03/19 05:27:43;;;;;;;1.48;1.38;;;19.50;23.10;;;;;;5113624;28;20208;-54
2021/03/19 05:30:11;;;;;;;1.75;1.65;;;19.50;23.10;;;;;;5113056;28;20155;-54
2021/03/19 05:32:39;;;;;;;1.52;1.42;;;19.50;23.10;;;;;;5113503;28;20527;-55
2021/03/19 05:35:08;;;;;;;2.00;1.80;;;19.50;23.10;;;;;;5113255;28;20159;-54
2021/03/19 05:37:35;;;;;;;2.05;1.85;;;19.50;23.10;;;;;;5113411;28;20237;-54
2021/03/19 05:40:01;;;;;;;1.65;1.45;;;19.50;23.10;;;;;;5113265;28;20153;-54
2021/03/19 05:42:31;;;;;;;1.65;1.55;;;19.50;23.10;;;;;;5113394;28;20282;-54
2021/03/19 05:45:11;;;;;;;1.73;1.30;;;19.50;23.10;;;;;;5112748;28;20240;-54
2021/03/19 05:47:39;;;;;;;2.30;1.95;;;19.50;23.10;;;;;;5115483;28;20189;-54
2021/03/19 05:50:14;;;;;;;1.95;1.35;;;19.50;23.10;;;;;;5117471;28;20153;-54
2021/03/19 05:52:39;;;;;;;2.17;1.35;;;19.50;23.10;;;;;;5117503;28;20243;-54
2021/03/19 05:55:14;;;;;;;1.80;1.70;;;19.40;23.10;;;;;;5117446;28;20631;-54
2021/03/19 05:57:40;;;;;;;1.65;1.40;;;19.40;23.10;;;;;;5117392;28;20208;-54
2021/03/19 06:00:17;;;;;;;1.90;1.70;;;19.40;23.10;;;;;;5116972;28;20149;-54
2021/03/19 06:02:45;;;;;;;1.77;1.67;;;19.40;23.10;;;;;;5117223;28;20172;-54
2021/03/19 06:05:14;;;;;;;2.92;2.13;;;19.40;23.20;;;;;;5117085;28;20168;-54
2021/03/19 06:07:50;;;;;;;1.95;1.50;;;19.40;23.10;;;;;;5117105;28;20189;-54
2021/03/19 06:10:30;;;;;;;2.15;1.20;;;19.40;23.10;;;;;;5115852;28;20611;-54
2021/03/19 06:13:25;;;;;;;1.33;1.23;;;19.40;23.20;;;;;;5117207;28;20150;-54
2021/03/19 06:15:53;;;;;;;1.52;1.42;;;19.50;23.20;;;;;;5115439;28;20165;-57
2021/03/19 06:18:30;;;;;;;1.88;1.50;;;19.50;23.20;;;;;;5116805;28;20158;-54
2021/03/19 06:21:06;;;;;;;1.85;1.50;;;19.50;23.20;;;;;;5116950;28;20156;-54
2021/03/19 06:23:33;;;;;;;1.70;1.50;;;19.50;23.20;;;;;;5117100;28;20224;-53
2021/03/19 06:26:01;;;;;;;2.78;1.80;;;19.50;23.20;;;;;;5116918;28;20214;-53
2021/03/19 06:28:39;;;;;;;1.75;1.30;;;19.50;23.10;;;;;;5116830;28;20206;-53
2021/03/19 06:31:29;;;;;;;1.77;1.67;;;19.50;23.10;;;;;;5114931;28;20173;-53
2021/03/19 06:34:12;;;;;;;2.03;1.63;;;19.50;23.10;;;;;;5116783;28;20157;-54
2021/03/19 06:37:03;;;;;;;1.60;1.50;;;19.50;23.10;;;;;;5116614;28;20704;-53
2021/03/19 06:39:48;;;;;;;1.58;1.48;;;19.50;23.10;;;;;;5116400;28;20153;-54
2021/03/19 06:42:19;;;;;;;1.50;1.35;;;19.50;23.10;;;;;;5116630;28;20150;-54
2021/03/19 06:45:08;;;;;;;1.70;1.60;;;19.50;23.10;;;;;;5115695;28;20207;-54
2021/03/19 06:47:53;;;;;;;1.55;1.17;;;19.50;23.10;;;;;;5109701;28;20631;-54
2021/03/19 06:50:22;;;;;;;2.00;1.38;;;19.50;23.10;;;;;;5116056;28;20520;-54
2021/03/19 06:52:48;;;;;;;2.38;1.52;;;19.50;23.10;;;;;;5116192;28;20153;-54
2021/03/19 06:55:56;;;;;;;1.95;1.70;;;19.50;23.10;;;;;;5116193;27;20627;-53
2021/03/19 06:58:51;;;;;;;2.50;1.50;;;19.50;23.10;;;;;;5109168;28;20220;-54
2021/03/19 07:01:22;;;;;;;1.65;1.55;;;19.50;23.10;;;;;;5106927;28;20181;-53
2021/03/19 07:04:20;;;;;;;2.10;1.45;;;19.50;23.00;;;;;;5116023;28;20153;-53
2021/03/19 07:07:04;;;;;;;2.45;1.95;;;19.50;23.00;;;;;;5115702;28;20188;-53
2021/03/19 07:09:36;;;;;;;1.50;1.40;;;19.60;23.10;;;;;;5115472;28;20150;-54
2021/03/19 07:12:27;;;;;;;1.95;1.40;;;19.60;23.00;;;;;;5115795;28;20191;-54
2021/03/19 07:14:59;;;;;;;2.60;1.60;;;19.60;23.10;;;;;;5114647;28;20149;-54
2021/03/19 07:17:27;;;;;;;12.02;10.77;;;19.50;23.10;;;;;;5093627;28;20324;-57
2021/03/19 07:20:35;;;;;;;12.27;11.38;;;15.00;15.40;;;;;;5075915;28;20553;-53
2021/03/19 07:23:14;;;;;;;13.73;12.43;;;14.70;16.80;;;;;;5092900;28;20174;-52
2021/03/19 07:26:17;;;;;;;15.30;14.00;;;12.50;18.30;;;;;;5094583;28;20223;-53
2021/03/19 07:28:51;;;;;;;11.75;10.65;;;10.10;23.60;;;;;;5093969;28;20431;-52
2021/03/19 07:31:36;;;;;;;9.25;8.35;;;10.60;27.40;;;;;;5092700;28;20152;-52
2021/03/19 07:34:20;;;;;;;11.23;8.70;;;11.40;28.60;;;;;;5094383;28;20158;-51
2021/03/19 07:37:05;;;;;;;9.55;6.72;;;12.30;29.10;;;;;;5103417;28;20370;-51
2021/03/19 07:40:00;;;;;;;6.82;6.22;;;13.20;27.90;;;;;;5114536;28;20572;-50
2021/03/19 07:42:54;;;;;;;8.70;7.85;;;14.00;26.60;;;;;;5112793;28;20236;-51
2021/03/19 07:45:59;;;;;;;9.23;8.32;;;14.60;25.00;;;;;;5113988;28;20607;-51
2021/03/19 07:49:00;;;;;;;8.80;8.10;;;15.10;23.90;;;;;;5114187;28;20161;-52
2021/03/19 07:51:39;;;;;;;7.93;7.28;;;15.50;23.00;;;;;;5095267;28;20523;-51
2021/03/19 07:54:08;;;;;;;7.80;7.15;;;15.90;22.30;;;;;;5091561;28;20214;-52
2021/03/19 07:56:47;;;;;;;7.03;6.07;;;16.20;21.60;;;;;;5104283;28;20468;-52
2021/03/19 07:59:41;;;;;;;7.45;5.75;;;16.40;21.50;;;;;;5098010;28;20213;-53
2021/03/19 08:02:25;;;;;;;5.88;4.88;;;16.50;21.70;;;;;;5093001;28;20161;-52
2021/03/19 08:05:01;;;;;;;4.03;3.55;;;16.80;21.20;;;;;;5108962;28;20189;-53
2021/03/19 08:07:39;;;;;;;5.30;4.80;;;17.10;21.00;;;;;;5113298;28;20199;-53
2021/03/19 08:10:27;;;;;;;3.08;2.70;;;17.20;20.80;;;;;;5111015;28;20633;-53
2021/03/19 08:13:37;;;;;;;3.92;3.53;;;17.50;20.80;;;;;;5074738;28;21389;-53
2021/03/19 08:16:10;;;;;;;2.90;2.60;;;17.60;20.80;;;;;;5064913;28;20182;-52
2021/03/19 08:18:39;;;;;;;3.42;2.85;;;17.80;21.00;;;;;;5099043;28;20173;-52
2021/03/19 08:21:16;;;;;;;3.22;1.90;;;18.00;21.20;;;;;;5100335;28;20181;-52
2021/03/19 08:24:00;;;;;;;2.85;2.30;;;18.10;21.20;;;;;;5091926;28;20675;-52
2021/03/19 08:27:11;;;;;;;4.00;2.58;;;18.20;21.20;;;;;;5102519;28;20237;-51
2021/03/19 08:30:05;;;;;;;2.10;1.90;;;18.30;21.20;;;;;;5108689;28;20200;-52
2021/03/19 08:32:42;;;;;;;5.47;1.98;;;18.40;21.30;;;;;;5094602;28;20177;-52
2021/03/19 08:35:40;;;;;;;2.45;2.17;;;18.50;21.30;;;;;;5110137;28;20177;-51
2021/03/19 08:38:17;;;;;;;2.10;1.90;;;18.60;21.40;;;;;;5093706;28;20154;-52
2021/03/19 08:40:43;;;;;;;1.90;1.80;;;18.60;21.30;;;;;;5095571;28;20177;-52
2021/03/19 08:43:23;;;;;;;1.90;1.57;;;18.70;21.40;;;;;;5093196;28;20180;-51
2021/03/19 08:46:01;;;;;;;2.50;1.55;;;18.70;21.40;;;;;;5094149;28;20624;-52
2021/03/19 08:48:27;;;;;;;1.50;1.40;;;18.80;21.40;;;;;;5092794;28;20208;-52
2021/03/19 08:50:52;;;;;;;2.73;1.80;;;18.90;21.50;;;;;;5100330;28;20201;-52
2021/03/19 08:53:20;;;;;;;1.80;1.70;;;18.90;21.50;;;;;;5106774;28;20263;-51
2021/03/19 08:56:02;;;;;;;3.00;1.58;;;18.90;21.50;;;;;;5110168;28;20240;-52
2021/03/19 08:58:28;;;;;;;2.13;1.92;;;19.00;21.50;;;;;;5092700;28;20223;-51
2021/03/19 09:01:04;;;;;;;2.20;1.70;;;19.00;21.50;;;;;;5102824;28;20165;-52
2021/03/19 09:03:41;;;;;;;2.30;1.67;;;19.00;21.50;;;;;;5093435;28;20180;-51
2021/03/19 09:06:12;;;;;;;6.05;1.77;;;19.00;21.40;;;;;;5103064;28;20172;-52
2021/03/19 09:08:44;;;;;;;2.03;1.73;;;19.10;21.50;;;;;;5109505;28;20170;-51
2021/03/19 09:11:16;;;;;;;2.13;1.50;;;19.10;21.50;;;;;;5090835;28;20218;-51
2021/03/19 09:14:02;;;;;;;1.40;1.30;;;19.10;21.50;;;;;;5091951;28;20588;-51
2021/03/19 09:16:43;;;;;;;2.55;1.20;;;19.20;21.50;;;;;;5093163;28;20600;-52
2021/03/19 09:19:43;;;;;;;2.63;1.67;;;19.20;21.50;;;;;;5095272;28;20263;-51
2021/03/19 09:22:24;;;;;;;1.50;1.23;;;19.20;21.50;;;;;;5090689;28;20173;-52
2021/03/19 09:25:12;;;;;;;1.88;1.23;;;19.20;21.50;;;;;;5092532;28;20658;-52
2021/03/19 09:28:18;;;;;;;1.85;1.48;;;19.30;21.60;;;;;;5092738;28;20647;-52
2021/03/19 09:31:04;;;;;;;1.52;1.17;;;19.30;21.60;;;;;;5022086;28;20188;-52
2021/03/19 09:33:44;;;;;;;2.17;1.30;;;19.30;21.50;;;;;;5088385;28;20185;-52
2021/03/19 09:36:48;;;;;;;1.13;1.02;;;19.40;21.60;;;;;;5092774;28;20153;-51
2021/03/19 09:39:45;;;;;;;1.60;1.25;;;19.40;21.50;;;;;;5091664;28;20214;-53
2021/03/19 09:42:22;;;;;;;2.00;1.80;;;19.40;21.50;;;;;;5074124;28;20209;-52
2021/03/19 09:44:52;;;;;;;3.30;1.70;;;19.40;21.50;;;;;;5091591;28;20278;-52
2021/03/19 09:47:23;;;;;;;1.70;1.60;;;19.40;21.60;;;;;;5102572;28;20203;-52
2021/03/19 09:50:01;;;;;;;1.85;1.70;;;19.40;21.60;;;;;;5111994;28;20157;-52
2021/03/19 09:52:32;;;;;;;1.55;1.45;;;19.40;21.50;;;;;;5101786;28;20184;-51
2021/03/19 09:54:57;;;;;;;1.92;1.25;;;19.50;21.60;;;;;;5101398;28;20637;-51
2021/03/19 09:57:28;;;;;;;2.73;1.40;;;19.50;21.60;;;;;;5092295;28;20227;-51
2021/03/19 10:00:04;;;;;;;1.67;1.58;;;19.50;21.50;;;;;;5091565;28;20215;-51
2021/03/19 10:02:41;;;;;;;2.38;1.67;;;19.50;21.50;;;;;;5092645;28;20636;-51
2021/03/19 10:05:12;;;;;;;1.42;1.33;;;19.50;21.50;;;;;;5091963;28;20235;-52
2021/03/19 10:07:46;;;;;;;1.23;1.13;;;19.60;21.50;;;;;;5092946;28;20201;-51
2021/03/19 10:10:22;;;;;;;1.60;1.40;;;19.60;21.50;;;;;;5097138;28;20182;-50
2021/03/19 10:12:51;;;;;;;3.05;1.52;;;19.60;21.40;;;;;;5080899;28;20200;-51
2021/03/19 10:15:21;;;;;;;1.55;1.35;;;19.70;21.70;;;;;;5098866;28;20154;-53
2021/03/19 10:17:52;;;;;;;2.67;1.50;;;19.70;21.80;;;;;;5090890;28;20604;-52
2021/03/19 10:20:27;;;;;;;3.45;1.50;;;19.80;21.90;;;;;;5096994;28;20189;-52
2021/03/19 10:22:56;;;;;;;2.67;1.60;;;19.50;21.90;;;;;;5106360;22;20244;-86
2021/03/19 10:25:33;;;;;;;4.05;1.60;;;19.80;22.20;;;;;;5063411;22;20243;-50
2021/03/19 10:28:24;;;;;;;1.90;1.45;;;19.90;22.30;;;;;;5083660;28;20197;-51
2021/03/19 10:31:02;;;;;;;3.10;1.48;;;19.90;22.20;;;;;;5086443;28;20171;-49
2021/03/19 10:33:38;;;;;;;2.97;1.42;;;19.90;22.10;;;;;;5087828;28;20177;-51
2021/03/19 10:36:44;;;;;;;4.45;2.20;;;19.90;22.20;;;;;;5083977;28;20198;-52
2021/03/19 10:39:42;;;;;;;1.67;1.23;;;19.90;22.70;;;;;;5066589;28;20178;-53
2021/03/19 10:42:44;;;;;;;2.25;1.40;;;20.00;22.40;;;;;;5087402;28;20169;-50
2021/03/19 10:45:50;;;;;;;3.03;1.75;;;19.90;22.30;;;;;;5082842;28;20292;-51
2021/03/19 10:48:25;;;;;;;2.50;1.45;;;20.00;22.30;;;;;;5085394;28;20224;-49
2021/03/19 10:50:56;;;;;;;2.78;1.40;;;20.00;22.30;;;;;;5087979;28;20219;-50
2021/03/19 10:53:53;;;;;;;3.90;2.33;;;20.00;22.30;;;;;;5089725;28;20190;-51
2021/03/19 10:56:22;;;;;;;1.45;1.35;;;20.00;22.30;;;;;;5071915;28;20170;-50
2021/03/19 10:58:55;;;;;;;2.55;1.25;;;20.00;22.30;;;;;;5085197;28;20278;-50
2021/03/19 11:01:40;;;;;;;3.55;2.20;;;20.00;22.40;;;;;;5090115;28;20182;-48
2021/03/19 11:04:26;;;;;;;1.52;1.27;;;20.00;22.40;;;;;;5090114;28;20516;-50
2021/03/19 11:06:53;;;;;;;3.40;1.67;;;20.10;22.60;;;;;;5087050;28;20196;-50
2021/03/19 11:09:26;;;;;;;3.58;1.65;;;20.10;22.60;;;;;;5085159;28;20211;-49
2021/03/19 11:11:54;;;;;;;2.65;1.42;;;20.10;22.60;;;;;;5085857;28;20551;-50
2021/03/19 11:14:27;;;;;;;1.63;1.27;;;20.10;22.60;;;;;;5089613;28;20178;-51
2021/03/19 11:17:15;;;;;;;4.75;1.40;;;20.10;22.60;;;;;;5082744;28;20216;-50
2021/03/19 11:19:59;;;;;;;2.30;1.30;;;20.70;23.00;;;;;;5083792;28;20178;-51
2021/03/19 11:22:38;;;;;;;1.50;1.30;;;20.10;22.50;;;;;;5087196;28;20613;-51
2021/03/19 11:25:25;;;;;;;1.40;1.30;;;20.10;22.50;;;;;;5089319;28;20210;-50
2021/03/19 11:27:52;;;;;;;5.13;1.88;;;20.20;22.60;;;;;;5089716;28;20229;-50
2021/03/19 11:30:21;;;;;;;2.83;1.40;;;20.20;22.50;;;;;;5088341;28;20192;-51
2021/03/19 11:33:20;;;;;;;2.90;1.20;;;20.20;22.40;;;;;;5088705;28;20182;-50
2021/03/19 11:36:10;;;;;;;1.23;1.10;;;18.50;21.20;;;;;;5088242;28;20678;-51
2021/03/19 11:38:39;;;;;;;1.40;1.27;;;20.20;22.40;;;;;;5088951;28;20236;-50
2021/03/19 11:41:26;;;;;;;1.42;1.33;;;20.20;22.20;;;;;;5088969;28;20260;-51
2021/03/19 11:43:52;;;;;;;1.45;1.30;;;20.20;22.20;;;;;;5086124;28;20268;-50
2021/03/19 11:46:19;;;;;;;4.13;1.50;;;20.20;22.40;;;;;;5089709;28;20190;-49
2021/03/19 11:48:45;;;;;;;1.45;1.35;;;20.20;22.70;;;;;;5088353;28;20636;-52
2021/03/19 11:51:28;;;;;;;2.03;1.75;;;20.30;22.80;;;;;;5090325;28;20635;-51
2021/03/19 11:53:55;;;;;;;2.05;1.48;;;20.20;22.90;;;;;;5085538;28;20169;-49
2021/03/19 11:56:24;;;;;;;2.40;1.77;;;20.20;23.10;;;;;;5077443;28;20226;-50
2021/03/19 11:58:50;;;;;;;2.90;1.60;;;20.30;23.30;;;;;;5088005;28;20162;-50
2021/03/19 12:01:17;;;;;;;2.70;1.60;;;20.30;23.30;;;;;;5084055;28;20180;-52
2021/03/19 12:03:47;;;;;;;2.10;1.30;;;20.30;23.30;;;;;;5086646;28;20169;-53
2021/03/19 12:06:15;;;;;;;1.35;1.25;;;20.30;23.10;;;;;;5088146;28;20174;-51
2021/03/19 12:08:44;;;;;;;3.00;2.10;;;20.30;23.10;;;;;;5089217;28;20177;-49
2021/03/19 12:11:16;;;;;;;1.50;1.40;;;20.30;23.10;;;;;;5090643;28;20170;-50
2021/03/19 12:13:42;;;;;;;1.85;1.30;;;20.30;23.10;;;;;;5089692;28;20239;-50
2021/03/19 12:16:08;;;;;;;3.40;1.83;;;20.30;22.90;;;;;;5093155;28;20162;-51
2021/03/19 12:18:34;;;;;;;1.70;1.60;;;20.30;22.90;;;;;;5070663;28;20178;-48
2021/03/19 12:21:00;;;;;;;2.23;1.30;;;20.30;23.00;;;;;;5079259;28;20650;-50
2021/03/19 12:23:27;;;;;;;4.13;1.35;;;20.30;23.00;;;;;;5086505;28;20186;-49
2021/03/19 12:25:53;;;;;;;1.80;1.30;;;20.80;23.30;;;;;;5081447;28;20240;-51
2021/03/19 12:28:21;;;;;;;2.60;1.65;;;20.30;23.00;;;;;;5080496;28;20221;-52
2021/03/19 12:30:50;;;;;;;2.95;1.80;;;20.30;23.00;;;;;;5087316;28;20205;-50
2021/03/19 12:33:16;;;;;;;5.70;2.10;;;20.40;23.10;;;;;;5079304;28;20280;-51
2021/03/19 12:35:43;;;;;;;2.20;1.50;;;20.40;23.10;;;;;;5084647;28;20188;-49
2021/03/19 12:38:12;;;;;;;2.17;1.60;;;20.40;23.10;;;;;;5061695;28;20220;-50
2021/03/19 12:40:40;;;;;;;5.93;1.70;;;20.40;23.10;;;;;;5081558;28;20190;-51
2021/03/19 12:43:08;;;;;;;1.90;1.60;;;20.40;23.20;;;;;;5085674;28;20209;-50
2021/03/19 12:45:34;;;;;;;3.17;1.83;;;20.40;23.20;;;;;;5088389;28;20170;-51
2021/03/19 12:48:01;;;;;;;2.15;1.50;;;20.40;23.20;;;;;;5072707;28;20198;-50
2021/03/19 12:50:28;;;;;;;1.80;1.58;;;20.40;23.20;;;;;;5081510;28;20524;-50
2021/03/19 12:52:55;;;;;;;2.03;1.83;;;20.40;23.20;;;;;;5072283;28;20247;-49
2021/03/19 12:55:22;;;;;;;1.50;1.30;;;20.40;23.10;;;;;;5073784;28;20264;-49
2021/03/19 12:57:48;;;;;;;2.05;1.25;;;20.40;23.10;;;;;;5084536;28;20608;-49
2021/03/19 13:00:21;;;;;;;2.67;1.45;;;20.40;23.10;;;;;;5082267;28;20196;-51
2021/03/19 13:02:47;;;;;;;1.42;1.33;;;20.40;23.20;;;;;;5092317;28;20177;-49
2021/03/19 13:05:15;;;;;;;5.43;1.60;;;20.40;23.20;;;;;;5088691;28;20698;-50
2021/03/19 13:07:41;;;;;;;2.15;1.80;;;20.40;23.20;;;;;;5083921;28;20216;-50
2021/03/19 13:10:12;;;;;;;2.03;1.40;;;20.40;23.20;;;;;;5090982;28;20331;-51
2021/03/19 13:12:38;;;;;;;1.42;1.33;;;20.40;23.20;;;;;;5083263;28;20521;-50
2021/03/19 13:15:07;;;;;;;1.70;1.55;;;20.40;23.20;;;;;;5092197;28;20173;-50
2021/03/19 13:17:32;;;;;;;5.82;1.60;;;20.40;23.10;;;;;;5070056;28;20273;-50
2021/03/19 13:19:58;;;;;;;1.80;1.30;;;20.40;23.10;;;;;;5080481;28;20304;-51
2021/03/19 13:22:24;;;;;;;6.13;1.60;;;20.40;23.10;;;;;;5092142;28;20528;-50
2021/03/19 13:24:50;;;;;;;2.10;1.43;;;20.40;23.00;;;;;;5084132;28;20451;-51